Time;durP1;ratioP1;P1;durP2;ratioP2;P2;SDS_P1;SDS_P2;PMS_P1;PMS_P2;Temp;Humidity;BMP_temperature;BMP_pressure;BME280_temperature;BME280_humidity;BME280_pressure;Samples;Min_cycle;Max_cycle;Signal;HPM_P1;HPM_P2
2021/07/06 00:00:13;;;;;;;5.27;4.07;;;20.40;99.90;;;;;;6247373;23;20741;-46
2021/07/06 00:02:40;;;;;;;3.90;3.60;;;20.40;99.90;;;;;;6246928;23;20745;-41
2021/07/06 00:05:09;;;;;;;4.90;4.03;;;20.40;99.90;;;;;;6247207;23;20414;-42
2021/07/06 00:07:36;;;;;;;3.93;3.53;;;20.40;99.90;;;;;;6246634;23;20893;-45
2021/07/06 00:10:03;;;;;;;4.40;3.50;;;20.40;99.90;;;;;;6247108;23;20429;-45
2021/07/06 00:12:30;;;;;;;4.93;3.77;;;20.40;99.90;;;;;;6247010;23;20463;-44
2021/07/06 00:14:57;;;;;;;5.00;4.00;;;20.40;99.90;;;;;;6246834;23;20423;-43
2021/07/06 00:17:25;;;;;;;3.53;3.13;;;20.40;99.90;;;;;;6248414;23;20410;-47
2021/07/06 00:19:51;;;;;;;6.53;3.80;;;20.40;99.90;;;;;;6248678;23;20403;-41
2021/07/06 00:22:18;;;;;;;4.67;3.60;;;20.50;99.90;;;;;;6248744;23;20399;-42
2021/07/06 00:24:46;;;;;;;5.03;2.70;;;20.40;99.90;;;;;;6248724;23;20438;-44
2021/07/06 00:27:13;;;;;;;3.90;3.07;;;20.50;99.90;;;;;;6248221;23;20917;-51
2021/07/06 00:29:40;;;;;;;5.23;3.00;;;20.50;99.90;;;;;;6248816;23;20438;-42
2021/07/06 00:32:07;;;;;;;3.30;3.00;;;20.50;99.90;;;;;;6247232;23;21019;-42
2021/07/06 00:34:36;;;;;;;3.30;2.87;;;20.60;99.90;;;;;;6248708;23;20422;-50
2021/07/06 00:37:03;;;;;;;3.57;3.13;;;20.60;99.90;;;;;;6248682;23;20399;-46
2021/07/06 00:39:29;;;;;;;3.73;2.87;;;20.60;99.90;;;;;;6248303;23;20407;-47
2021/07/06 00:41:59;;;;;;;3.87;3.17;;;20.60;99.90;;;;;;6248622;23;20426;-45
2021/07/06 00:44:26;;;;;;;4.90;3.50;;;20.70;99.90;;;;;;6248549;23;20438;-44
2021/07/06 00:46:52;;;;;;;8.37;3.60;;;20.70;99.90;;;;;;6248325;23;20867;-42
2021/07/06 00:49:19;;;;;;;3.80;2.70;;;20.70;99.90;;;;;;6248514;23;20446;-42
2021/07/06 00:51:47;;;;;;;6.53;3.33;;;20.70;99.90;;;;;;6248939;23;20402;-47
2021/07/06 00:54:14;;;;;;;2.93;2.60;;;20.70;99.90;;;;;;6248431;23;20739;-48
2021/07/06 00:56:41;;;;;;;3.57;3.27;;;20.70;99.90;;;;;;6248135;23;20484;-45
2021/07/06 00:59:08;;;;;;;4.03;2.63;;;20.70;99.90;;;;;;6248387;23;20407;-42
2021/07/06 01:01:36;;;;;;;3.83;2.80;;;20.70;99.90;;;;;;6248378;23;20399;-46
2021/07/06 01:04:03;;;;;;;4.37;3.67;;;20.70;99.90;;;;;;6247844;23;20431;-42
2021/07/06 01:06:29;;;;;;;4.43;3.00;;;20.70;99.90;;;;;;6248044;23;20474;-44
2021/07/06 01:08:57;;;;;;;3.20;2.90;;;20.70;99.90;;;;;;6248499;23;20399;-48
2021/07/06 01:11:25;;;;;;;5.13;3.03;;;20.70;99.90;;;;;;6248293;23;20418;-40
2021/07/06 01:13:52;;;;;;;4.57;3.30;;;20.70;99.90;;;;;;6248306;23;20473;-41
2021/07/06 01:16:19;;;;;;;5.07;2.70;;;20.70;99.90;;;;;;6248385;23;20465;-49
2021/07/06 01:18:46;;;;;;;6.17;3.87;;;20.70;99.90;;;;;;6248269;23;20411;-42
2021/07/06 01:21:13;;;;;;;4.30;2.80;;;20.70;99.90;;;;;;6248192;23;20476;-40
2021/07/06 01:23:42;;;;;;;6.03;3.23;;;20.60;99.90;;;;;;6248200;23;20518;-41
2021/07/06 01:26:09;;;;;;;3.13;2.80;;;20.60;99.90;;;;;;6247908;23;20454;-42
2021/07/06 01:28:38;;;;;;;2.97;2.70;;;20.60;99.90;;;;;;6247597;23;20423;-50
2021/07/06 01:31:04;;;;;;;4.63;2.87;;;20.50;99.90;;;;;;6248112;23;20411;-50
2021/07/06 01:33:33;;;;;;;3.60;2.73;;;20.50;99.90;;;;;;6248172;23;20395;-41
2021/07/06 01:36:03;;;;;;;3.80;2.73;;;20.40;99.90;;;;;;6248046;23;20403;-42
2021/07/06 01:38:30;;;;;;;8.07;3.33;;;20.40;99.90;;;;;;6248136;23;20398;-42
2021/07/06 01:40:58;;;;;;;7.10;3.60;;;20.30;99.90;;;;;;6248055;23;20399;-41
2021/07/06 01:43:25;;;;;;;5.13;3.10;;;20.30;99.90;;;;;;6247568;23;20445;-51
2021/07/06 01:45:51;;;;;;;4.80;3.27;;;20.30;99.90;;;;;;6247650;23;20407;-41
2021/07/06 01:48:18;;;;;;;4.67;3.33;;;20.30;99.90;;;;;;6247942;23;20411;-46
2021/07/06 01:50:46;;;;;;;4.07;2.73;;;20.30;99.90;;;;;;6247693;23;20408;-41
2021/07/06 01:53:15;;;;;;;3.47;3.17;;;20.20;99.90;;;;;;6247725;23;20419;-43
2021/07/06 01:55:45;;;;;;;3.03;2.70;;;20.20;99.90;;;;;;6248093;23;20472;-47
2021/07/06 01:58:14;;;;;;;3.00;2.70;;;20.20;99.90;;;;;;6248540;23;20407;-42
2021/07/06 02:00:43;;;;;;;7.57;2.83;;;20.20;99.90;;;;;;6248062;23;20403;-44
2021/07/06 02:03:11;;;;;;;3.07;2.77;;;20.20;99.90;;;;;;6247618;23;20403;-41
2021/07/06 02:05:40;;;;;;;3.43;3.10;;;20.20;99.90;;;;;;6247617;23;20454;-41
2021/07/06 02:08:09;;;;;;;3.50;3.03;;;20.20;99.90;;;;;;6247589;23;20473;-44
2021/07/06 02:10:38;;;;;;;3.03;2.73;;;20.20;99.90;;;;;;6248014;23;20686;-46
2021/07/06 02:13:08;;;;;;;3.57;2.67;;;20.20;99.90;;;;;;6247664;23;20696;-45
2021/07/06 02:15:36;;;;;;;3.53;2.93;;;20.20;99.90;;;;;;6248051;23;20884;-42
2021/07/06 02:18:03;;;;;;;3.30;3.00;;;20.20;99.90;;;;;;6247915;23;20718;-43
2021/07/06 02:20:30;;;;;;;3.40;3.10;;;20.20;99.90;;;;;;6247927;23;20422;-41
2021/07/06 02:22:56;;;;;;;3.70;3.07;;;20.10;99.90;;;;;;6247885;23;20403;-44
2021/07/06 02:25:23;;;;;;;7.93;3.57;;;20.10;99.90;;;;;;6247729;23;20439;-42
2021/07/06 02:27:50;;;;;;;3.23;2.90;;;20.20;99.90;;;;;;6247270;23;20438;-48
2021/07/06 02:30:19;;;;;;;5.10;2.70;;;20.10;99.90;;;;;;6247823;23;20406;-45
2021/07/06 04:25:49;;;;;;;3.87;3.30;;;20.20;99.90;;;;;;6155366;22;20753;-43
2021/07/06 04:28:15;;;;;;;4.80;3.40;;;20.20;99.90;;;;;;6256365;23;20538;-41
2021/07/06 04:30:42;;;;;;;4.23;3.47;;;20.20;99.90;;;;;;6250749;23;20406;-41
2021/07/06 04:33:09;;;;;;;5.20;4.70;;;20.20;99.90;;;;;;6250184;23;20485;-42
2021/07/06 04:35:36;;;;;;;6.40;3.47;;;20.10;99.90;;;;;;6267482;23;20407;-42
2021/07/06 04:38:03;;;;;;;3.30;3.00;;;20.10;99.90;;;;;;6270781;23;20399;-43
2021/07/06 04:40:29;;;;;;;4.50;3.67;;;20.10;99.90;;;;;;6270638;23;20430;-46
2021/07/06 04:42:58;;;;;;;7.03;4.20;;;20.10;99.90;;;;;;6270791;23;20426;-41
2021/07/06 04:45:25;;;;;;;8.00;5.53;;;20.10;99.90;;;;;;6260626;23;20738;-42
2021/07/06 04:47:51;;;;;;;5.30;4.73;;;20.10;99.90;;;;;;6250349;23;20932;-48
2021/07/06 04:50:18;;;;;;;6.53;5.23;;;20.10;99.90;;;;;;6254264;23;20460;-42
2021/07/06 04:52:47;;;;;;;6.00;5.30;;;20.00;99.90;;;;;;6267399;23;20438;-42
2021/07/06 04:55:15;;;;;;;9.77;5.67;;;19.90;99.90;;;;;;6266254;23;20454;-45
2021/07/06 04:57:41;;;;;;;8.30;5.80;;;19.90;99.90;;;;;;6272124;23;20394;-41
2021/07/06 05:00:11;;;;;;;8.20;6.10;;;19.80;99.90;;;;;;6271892;22;20417;-45
2021/07/06 05:02:38;;;;;;;8.40;5.50;;;19.80;99.90;;;;;;6256215;23;20414;-47
2021/07/06 05:05:07;;;;;;;6.13;5.50;;;19.80;99.90;;;;;;6272117;23;20431;-43
2021/07/06 05:07:34;;;;;;;6.27;5.67;;;19.80;99.90;;;;;;6274897;23;20411;-41
2021/07/06 05:10:01;;;;;;;6.00;5.50;;;19.90;99.90;;;;;;6274809;22;20387;-50
2021/07/06 05:12:28;;;;;;;4.80;4.30;;;19.80;99.90;;;;;;6274905;22;20422;-47
2021/07/06 05:17:32;;;;;;;7.60;5.10;;;20.00;99.90;;;;;;6155565;23;20630;-44
2021/07/06 05:19:59;;;;;;;6.03;3.60;;;20.00;99.90;;;;;;6253289;23;20445;-45
2021/07/06 05:22:26;;;;;;;4.77;3.80;;;20.10;99.90;;;;;;6248083;23;20412;-39
2021/07/06 05:24:53;;;;;;;7.80;4.37;;;20.10;99.90;;;;;;6248045;23;20430;-40
2021/07/06 05:27:19;;;;;;;4.77;3.90;;;20.20;99.90;;;;;;6248500;23;20407;-40
2021/07/06 05:29:46;;;;;;;3.63;3.00;;;20.20;99.90;;;;;;6248497;23;20402;-41
2021/07/06 05:32:15;;;;;;;5.90;3.80;;;20.20;99.90;;;;;;6250003;23;20757;-47
2021/07/06 05:34:43;;;;;;;3.90;3.50;;;20.30;99.90;;;;;;6248353;23;20468;-43
2021/07/06 05:37:10;;;;;;;3.20;2.90;;;20.30;99.90;;;;;;6248152;23;20403;-41
2021/07/06 06:27:16;;;;;;;3.00;2.60;;;21.80;99.90;;;;;;6146178;23;21452;-42
2021/07/06 06:32:18;;;;;;;3.10;2.20;;;21.90;99.90;;;;;;6265222;23;20442;-46
2021/07/06 06:34:46;;;;;;;3.60;3.20;;;22.00;99.90;;;;;;6273611;22;20407;-50
2021/07/06 06:37:13;;;;;;;2.17;1.97;;;22.10;99.90;;;;;;6272557;23;20410;-48
2021/07/06 06:39:40;;;;;;;3.27;2.07;;;22.10;99.90;;;;;;6273324;23;20399;-47
2021/07/06 06:42:08;;;;;;;2.30;2.10;;;22.20;99.90;;;;;;6273212;23;20425;-45
2021/07/06 06:44:37;;;;;;;2.20;2.00;;;22.30;99.90;;;;;;6272782;22;20439;-47
2021/07/06 06:47:07;;;;;;;2.67;2.23;;;22.30;99.90;;;;;;6272845;23;20414;-48
2021/07/06 06:49:36;;;;;;;4.17;2.40;;;22.30;99.90;;;;;;6273102;23;20395;-46
2021/07/06 06:52:07;;;;;;;1.80;1.70;;;22.40;99.90;;;;;;6273443;23;20431;-47
2021/07/06 06:54:34;;;;;;;3.40;2.20;;;22.50;99.90;;;;;;6273292;23;20367;-49
2021/07/06 06:57:01;;;;;;;3.10;2.00;;;22.60;99.90;;;;;;6273234;23;20758;-47
2021/07/06 06:59:28;;;;;;;2.37;1.90;;;22.70;99.90;;;;;;6273075;23;20403;-42
2021/07/06 07:04:36;;;;;;;2.13;1.93;;;23.00;99.90;;;;;;6272673;22;20502;-43
2021/07/06 07:07:03;;;;;;;2.97;2.20;;;23.10;99.90;;;;;;6274246;23;20391;-43
2021/07/06 07:09:30;;;;;;;2.40;2.10;;;23.30;99.90;;;;;;6273741;23;20399;-45
2021/07/06 07:11:57;;;;;;;2.30;1.93;;;23.50;99.90;;;;;;6273916;23;20434;-42
2021/07/06 07:14:23;;;;;;;2.90;2.03;;;23.70;99.90;;;;;;6273888;23;20442;-44
2021/07/06 07:16:51;;;;;;;2.90;2.50;;;23.90;99.90;;;;;;6274099;22;20399;-47
2021/07/06 07:19:19;;;;;;;2.00;1.73;;;24.20;99.90;;;;;;6274227;23;20395;-44
2021/07/06 07:21:46;;;;;;;2.00;1.73;;;24.40;99.90;;;;;;6274538;22;20371;-46
2021/07/06 07:24:13;;;;;;;5.27;2.10;;;25.10;99.90;;;;;;6274391;22;20451;-42
2021/07/06 07:26:39;;;;;;;2.07;1.87;;;26.40;99.90;;;;;;6274210;22;20429;-47
2021/07/06 07:29:06;;;;;;;2.03;1.83;;;27.80;99.90;;;;;;6274534;23;20410;-45
2021/07/06 07:31:35;;;;;;;2.20;1.60;;;29.20;99.90;;;;;;6273825;23;20438;-43
2021/07/06 07:34:01;;;;;;;1.70;1.50;;;30.90;99.90;;;;;;6274203;23;20403;-45
2021/07/06 07:36:29;;;;;;;5.60;1.70;;;32.10;94.20;;;;;;6273837;23;20481;-50
2021/07/06 07:38:58;;;;;;;2.60;1.97;;;32.40;87.70;;;;;;6273938;22;20387;-50
2021/07/06 07:41:24;;;;;;;6.60;1.63;;;32.60;85.30;;;;;;6273839;23;20403;-53
2021/07/06 07:43:53;;;;;;;1.80;1.50;;;33.30;82.90;;;;;;6273771;22;20395;-49
2021/07/06 07:46:20;;;;;;;2.00;1.63;;;34.10;74.30;;;;;;6273383;23;20438;-51
2021/07/06 07:48:47;;;;;;;2.07;1.60;;;34.20;70.80;;;;;;6274245;23;20395;-51
2021/07/06 07:51:14;;;;;;;1.93;1.67;;;33.80;69.70;;;;;;6273601;23;20383;-46
2021/07/06 07:53:43;;;;;;;2.13;1.93;;;32.90;70.60;;;;;;6272662;22;20395;-45
2021/07/06 07:56:10;;;;;;;1.90;1.80;;;32.70;72.60;;;;;;6271939;23;20405;-46
2021/07/06 07:58:36;;;;;;;1.50;1.40;;;32.70;71.00;;;;;;6272398;23;20386;-49
2021/07/06 08:01:04;;;;;;;3.67;1.83;;;32.90;71.20;;;;;;6272451;23;20429;-52
2021/07/06 08:03:30;;;;;;;2.30;1.90;;;33.40;70.40;;;;;;6272346;23;20383;-50
2021/07/06 08:05:58;;;;;;;2.73;1.43;;;33.40;68.90;;;;;;6271933;23;20461;-43
2021/07/06 08:08:25;;;;;;;1.80;1.50;;;33.80;66.80;;;;;;6272600;23;20414;-48
2021/07/06 08:10:53;;;;;;;1.93;1.83;;;33.60;67.10;;;;;;6272388;23;20383;-44
2021/07/06 08:13:20;;;;;;;1.80;1.50;;;34.00;65.80;;;;;;6272625;23;20403;-51
2021/07/06 08:15:46;;;;;;;1.90;1.50;;;34.50;64.00;;;;;;6272018;23;20383;-43
2021/07/06 08:18:13;;;;;;;1.83;1.70;;;34.70;62.80;;;;;;6272248;23;20403;-43
2021/07/06 08:20:40;;;;;;;2.37;1.57;;;35.20;60.70;;;;;;6272137;23;20398;-47
2021/07/06 08:23:06;;;;;;;2.07;1.60;;;34.80;59.90;;;;;;6272136;23;20407;-48
2021/07/06 08:25:33;;;;;;;1.93;1.73;;;35.10;59.40;;;;;;6272167;23;20435;-48
2021/07/06 08:28:01;;;;;;;2.17;1.57;;;35.60;57.80;;;;;;6272366;23;20379;-48
2021/07/06 08:30:28;;;;;;;2.73;2.23;;;35.90;56.80;;;;;;6272292;23;20383;-44
2021/07/06 08:32:55;;;;;;;1.93;1.67;;;36.30;56.00;;;;;;6272269;23;20360;-49
2021/07/06 08:35:21;;;;;;;3.70;2.00;;;36.60;54.80;;;;;;6273662;23;20375;-47
2021/07/06 08:37:49;;;;;;;1.30;1.20;;;36.20;54.20;;;;;;6275181;22;20391;-45
2021/07/06 08:40:17;;;;;;;1.90;1.40;;;36.40;53.50;;;;;;6275251;23;20383;-48
2021/07/06 08:42:43;;;;;;;2.50;1.83;;;36.30;53.50;;;;;;6274917;23;20490;-45
2021/07/06 08:45:13;;;;;;;3.30;1.50;;;36.10;53.60;;;;;;6275001;23;20426;-48
2021/07/06 08:47:43;;;;;;;1.70;1.30;;;36.10;54.10;;;;;;6274338;23;20383;-46
2021/07/06 08:50:10;;;;;;;2.53;1.60;;;36.50;53.60;;;;;;6273929;23;20383;-43
2021/07/06 08:52:42;;;;;;;1.47;1.30;;;36.80;52.60;;;;;;6274008;23;20387;-45
2021/07/06 08:55:10;;;;;;;1.97;1.40;;;36.90;52.10;;;;;;6275869;22;20434;-45
2021/07/06 08:57:38;;;;;;;2.33;1.30;;;37.00;52.10;;;;;;6275992;22;20477;-44
2021/07/06 09:00:06;;;;;;;1.60;1.50;;;37.00;52.20;;;;;;6275621;23;20450;-45
2021/07/06 09:02:34;;;;;;;1.57;1.47;;;37.00;51.40;;;;;;6275732;23;20433;-45
2021/07/06 09:05:01;;;;;;;1.67;1.57;;;36.90;51.70;;;;;;6275419;22;20423;-49
2021/07/06 09:07:40;;;;;;;1.73;1.50;;;37.20;51.30;;;;;;6274778;23;20469;-47
2021/07/06 09:10:12;;;;;;;3.40;1.73;;;37.40;50.40;;;;;;6274748;23;20403;-51
2021/07/06 09:12:40;;;;;;;2.80;1.60;;;37.60;51.00;;;;;;6273887;23;20383;-50
2021/07/06 09:15:22;;;;;;;1.77;1.63;;;38.00;50.20;;;;;;6273501;23;20399;-51
2021/07/06 09:31:27;;;;;;;2.80;1.70;;;38.10;49.50;;;;;;5889340;22;8054409;-49
2021/07/06 09:34:00;;;;;;;1.73;1.40;;;38.40;48.00;;;;;;6190242;23;20162;-43
2021/07/06 09:36:28;;;;;;;1.67;1.50;;;38.40;47.40;;;;;;6189750;23;20390;-48
2021/07/06 09:39:06;;;;;;;1.73;1.40;;;38.20;47.60;;;;;;6189816;23;20451;-45
2021/07/06 09:41:33;;;;;;;2.60;1.60;;;38.30;47.50;;;;;;6190519;23;20389;-51
2021/07/06 09:44:24;;;;;;;3.50;1.67;;;38.50;47.20;;;;;;6190372;23;20432;-45
2021/07/06 09:46:55;;;;;;;2.43;1.60;;;38.50;47.10;;;;;;6189796;23;20386;-50
2021/07/06 09:49:23;;;;;;;1.30;1.20;;;38.30;46.50;;;;;;6190052;23;20381;-50
2021/07/06 09:51:52;;;;;;;9.57;1.47;;;38.00;47.40;;;;;;6190021;23;20400;-43
2021/07/06 09:54:30;;;;;;;1.40;1.20;;;38.10;46.90;;;;;;6190231;23;20405;-50
2021/07/06 09:57:06;;;;;;;2.63;1.47;;;37.90;47.10;;;;;;6190086;23;20401;-42
2021/07/06 09:59:33;;;;;;;1.33;1.23;;;38.00;46.90;;;;;;6191329;23;20463;-46
2021/07/06 10:02:03;;;;;;;1.63;1.47;;;38.30;46.20;;;;;;6190315;23;20409;-50
2021/07/06 10:04:31;;;;;;;1.57;1.47;;;38.60;45.30;;;;;;6189400;23;20389;-49
2021/07/06 10:07:00;;;;;;;3.20;1.60;;;38.40;44.80;;;;;;6189902;23;20409;-51
2021/07/06 10:09:27;;;;;;;1.83;1.60;;;38.20;45.30;;;;;;6190239;23;20476;-51
2021/07/06 10:11:54;;;;;;;1.60;1.30;;;37.70;45.50;;;;;;6189300;23;20420;-49
2021/07/06 10:14:21;;;;;;;1.43;1.20;;;37.40;45.90;;;;;;6188982;23;20401;-50
2021/07/06 10:16:48;;;;;;;2.83;1.60;;;37.30;46.00;;;;;;6189709;23;20481;-50
2021/07/06 10:19:16;;;;;;;1.97;1.30;;;37.20;46.30;;;;;;6190006;23;20437;-47
2021/07/06 10:21:43;;;;;;;2.13;1.50;;;36.80;47.30;;;;;;6190101;23;20409;-41
2021/07/06 10:24:10;;;;;;;5.03;1.40;;;36.50;47.50;;;;;;6189560;23;20845;-48
2021/07/06 10:26:40;;;;;;;1.67;1.30;;;36.20;47.80;;;;;;6189909;23;20431;-46
2021/07/06 10:29:07;;;;;;;2.17;1.27;;;36.00;47.80;;;;;;6189998;23;20445;-45
2021/07/06 10:31:42;;;;;;;1.60;1.20;;;35.90;47.90;;;;;;6184652;23;20429;-46
2021/07/06 10:34:21;;;;;;;1.37;1.17;;;35.80;48.40;;;;;;6182920;23;20413;-47
2021/07/06 10:36:48;;;;;;;5.33;2.93;;;35.70;48.10;;;;;;6183096;23;20409;-48
2021/07/06 10:39:18;;;;;;;1.30;1.10;;;35.60;49.20;;;;;;6183324;23;20473;-43
2021/07/06 10:41:57;;;;;;;3.10;1.50;;;35.30;49.00;;;;;;6182982;23;20417;-44
2021/07/06 10:44:33;;;;;;;1.70;1.30;;;34.70;49.90;;;;;;6183063;23;20382;-43
2021/07/06 10:47:00;;;;;;;2.90;1.93;;;34.80;50.80;;;;;;6182709;23;20405;-42
2021/07/06 10:49:34;;;;;;;1.77;1.30;;;34.90;51.00;;;;;;6183220;23;20912;-50
2021/07/06 10:52:02;;;;;;;1.80;1.70;;;34.40;49.90;;;;;;6183475;23;20394;-49
2021/07/06 10:54:34;;;;;;;2.33;1.47;;;34.00;50.70;;;;;;6182845;23;20390;-45
2021/07/06 10:57:24;;;;;;;2.10;1.80;;;33.50;51.20;;;;;;6182697;23;20370;-44
2021/07/06 10:59:56;;;;;;;2.20;1.80;;;33.40;52.00;;;;;;6182424;23;20489;-47
2021/07/06 11:02:24;;;;;;;2.47;1.60;;;33.50;52.10;;;;;;6182899;23;20385;-45
2021/07/06 11:05:05;;;;;;;1.43;1.33;;;33.50;52.10;;;;;;6182790;23;20465;-41
2021/07/06 11:07:54;;;;;;;1.43;1.30;;;33.40;51.90;;;;;;6183054;23;20453;-48
2021/07/06 11:10:31;;;;;;;2.07;1.27;;;33.30;51.80;;;;;;6182906;23;20454;-46
2021/07/06 11:13:26;;;;;;;3.23;1.50;;;33.10;52.70;;;;;;6182698;23;20429;-45
2021/07/06 11:15:53;;;;;;;1.50;1.40;;;33.00;52.70;;;;;;6179359;23;20390;-46
2021/07/06 11:18:38;;;;;;;6.00;1.60;;;33.00;53.50;;;;;;6183028;23;20433;-52
2021/07/06 11:21:31;;;;;;;2.70;1.57;;;33.10;53.00;;;;;;6182774;23;20417;-44
2021/07/06 11:24:17;;;;;;;3.00;1.43;;;33.00;53.00;;;;;;6182638;23;20382;-52
2021/07/06 11:26:45;;;;;;;2.17;1.70;;;33.00;52.30;;;;;;6183607;23;20370;-49
2021/07/06 11:29:11;;;;;;;1.60;1.30;;;32.80;52.60;;;;;;6183011;23;20504;-46
2021/07/06 11:31:38;;;;;;;1.43;1.33;;;32.70;52.50;;;;;;6182829;23;20421;-49
2021/07/06 11:34:05;;;;;;;1.60;1.50;;;32.50;52.90;;;;;;6182328;23;20402;-48
2021/07/06 11:36:39;;;;;;;1.83;1.30;;;32.50;53.40;;;;;;6182802;23;20449;-50
2021/07/06 11:39:08;;;;;;;2.33;1.23;;;32.50;53.90;;;;;;6182701;23;20462;-51
2021/07/06 11:41:35;;;;;;;1.50;1.37;;;32.40;52.90;;;;;;6182445;23;20394;-49
2021/07/06 11:44:01;;;;;;;1.43;1.33;;;32.40;53.80;;;;;;6182191;23;20406;-46
2021/07/06 11:46:32;;;;;;;2.10;1.90;;;32.40;54.00;;;;;;6182676;23;20398;-42
2021/07/06 11:49:01;;;;;;;4.20;1.53;;;32.20;54.20;;;;;;6183351;23;20390;-43
2021/07/06 11:51:28;;;;;;;3.40;1.50;;;32.30;55.70;;;;;;6182602;23;20480;-43
2021/07/06 11:53:59;;;;;;;1.60;1.50;;;32.40;54.80;;;;;;6183273;23;20844;-43
2021/07/06 11:56:27;;;;;;;2.13;1.47;;;32.60;53.70;;;;;;6183264;23;20390;-49
2021/07/06 11:58:55;;;;;;;2.43;1.53;;;32.40;53.70;;;;;;6182826;23;20437;-46
2021/07/06 12:01:22;;;;;;;2.70;1.53;;;32.20;53.80;;;;;;6182712;23;20766;-50
2021/07/06 12:03:49;;;;;;;2.03;1.83;;;32.00;53.80;;;;;;6182749;23;20406;-49
2021/07/06 12:06:17;;;;;;;2.50;1.20;;;31.90;54.10;;;;;;6182195;23;20398;-45
2021/07/06 12:08:45;;;;;;;1.33;1.20;;;31.60;54.80;;;;;;6182942;23;20405;-52
2021/07/06 12:11:15;;;;;;;1.33;1.10;;;31.60;55.10;;;;;;6181992;23;20386;-46
2021/07/06 12:13:48;;;;;;;1.40;1.27;;;31.70;55.40;;;;;;6182830;23;20437;-48
2021/07/06 12:16:16;;;;;;;1.80;1.33;;;31.80;55.30;;;;;;6183254;23;20378;-44
2021/07/06 12:18:52;;;;;;;2.40;1.50;;;31.90;55.10;;;;;;6183564;23;20413;-48
2021/07/06 12:21:24;;;;;;;3.27;1.73;;;31.90;54.70;;;;;;6182422;23;20437;-50
2021/07/06 12:23:51;;;;;;;1.53;1.43;;;32.00;54.80;;;;;;6182207;23;20427;-48
2021/07/06 12:26:19;;;;;;;7.83;5.50;;;31.90;54.90;;;;;;6181938;23;20401;-49
2021/07/06 12:28:46;;;;;;;1.83;1.67;;;31.90;55.10;;;;;;6182305;23;20382;-52
2021/07/06 12:31:27;;;;;;;9.10;3.87;;;31.70;55.20;;;;;;6182332;23;20437;-54
2021/07/06 12:34:06;;;;;;;3.03;1.73;;;31.80;56.40;;;;;;6181460;23;20721;-47
2021/07/06 12:36:35;;;;;;;2.70;1.83;;;31.80;55.10;;;;;;6182752;23;20416;-51
2021/07/06 12:39:24;;;;;;;4.20;1.40;;;31.90;56.00;;;;;;6181966;23;20406;-47
2021/07/06 12:41:55;;;;;;;2.37;1.50;;;31.70;55.00;;;;;;6173582;23;20418;-48
2021/07/06 12:44:40;;;;;;;2.00;1.80;;;31.20;56.00;;;;;;6182041;23;20382;-48
2021/07/06 12:47:18;;;;;;;2.90;1.53;;;31.00;55.90;;;;;;6181846;23;20436;-45
2021/07/06 12:49:51;;;;;;;1.93;1.70;;;31.00;56.30;;;;;;6182617;23;20374;-43
2021/07/06 12:52:18;;;;;;;2.00;1.80;;;31.10;56.50;;;;;;6182157;23;20382;-45
2021/07/06 12:54:46;;;;;;;3.30;2.20;;;31.00;57.00;;;;;;6181486;23;20402;-50
2021/07/06 12:57:26;;;;;;;1.97;1.77;;;30.90;56.80;;;;;;6181900;23;20386;-45
2021/07/06 13:00:07;;;;;;;3.63;1.67;;;30.80;56.70;;;;;;6182127;23;20406;-47
2021/07/06 13:02:34;;;;;;;2.27;1.90;;;30.90;57.70;;;;;;6181928;23;20389;-46
2021/07/06 13:05:02;;;;;;;1.40;1.20;;;31.00;57.30;;;;;;6182240;23;20410;-47
2021/07/06 13:07:30;;;;;;;2.30;1.60;;;31.10;56.70;;;;;;6182524;23;20465;-51
2021/07/06 13:10:08;;;;;;;2.03;1.43;;;31.00;57.00;;;;;;6181947;23;20408;-51
2021/07/06 13:12:38;;;;;;;2.87;1.67;;;30.70;56.60;;;;;;6181491;23;20841;-50
2021/07/06 13:15:07;;;;;;;1.73;1.63;;;30.60;57.30;;;;;;6182248;23;20406;-44
2021/07/06 13:17:34;;;;;;;4.13;1.33;;;30.60;57.40;;;;;;6181525;23;20417;-50
2021/07/06 13:20:05;;;;;;;1.57;1.30;;;30.60;57.20;;;;;;6181967;23;20477;-45
2021/07/06 13:22:32;;;;;;;2.10;1.50;;;30.50;57.10;;;;;;6181706;23;20394;-43
2021/07/06 13:24:59;;;;;;;1.43;1.30;;;30.40;57.40;;;;;;6181843;23;20402;-50
2021/07/06 13:27:30;;;;;;;1.87;1.50;;;30.40;57.80;;;;;;6181851;23;20440;-47
2021/07/06 13:29:59;;;;;;;5.53;1.47;;;30.40;57.80;;;;;;6181348;23;20440;-51
2021/07/06 13:32:26;;;;;;;10.10;2.00;;;30.40;57.80;;;;;;6182284;23;20393;-47
2021/07/06 13:34:53;;;;;;;1.90;1.70;;;30.50;58.30;;;;;;6182578;23;20405;-48
2021/07/06 13:37:19;;;;;;;2.00;1.30;;;30.40;57.00;;;;;;6182228;23;20397;-49
2021/07/06 13:39:46;;;;;;;3.47;1.53;;;30.20;57.30;;;;;;6182026;23;20405;-48
2021/07/06 13:42:13;;;;;;;1.70;1.47;;;30.20;57.90;;;;;;6183149;23;20409;-44
2021/07/06 13:44:39;;;;;;;2.17;1.57;;;30.10;58.50;;;;;;6183978;23;20397;-56
2021/07/06 13:47:11;;;;;;;3.47;1.90;;;30.10;59.20;;;;;;6126810;23;20941;-42
2021/07/06 13:49:38;;;;;;;2.00;1.47;;;30.30;59.20;;;;;;6154053;23;20407;-43
2021/07/06 13:52:06;;;;;;;2.17;1.73;;;30.30;57.90;;;;;;6153859;23;20415;-46
2021/07/06 13:54:35;;;;;;;1.50;1.30;;;30.30;58.30;;;;;;6152342;23;20418;-50
2021/07/06 13:57:04;;;;;;;3.40;2.13;;;30.20;58.60;;;;;;6152567;23;20410;-49
2021/07/06 13:59:31;;;;;;;1.50;1.40;;;30.20;58.10;;;;;;6151891;23;20395;-49
2021/07/06 14:01:58;;;;;;;2.10;1.43;;;30.40;58.50;;;;;;6152172;23;20501;-50
2021/07/06 14:04:27;;;;;;;5.80;1.93;;;30.40;58.10;;;;;;6151871;23;20413;-48
2021/07/06 14:06:54;;;;;;;2.07;1.43;;;30.50;58.10;;;;;;6152906;23;20399;-48
2021/07/06 14:09:21;;;;;;;7.13;4.83;;;30.40;58.40;;;;;;6138119;23;20461;-49
2021/07/06 14:11:48;;;;;;;2.50;1.87;;;30.40;58.40;;;;;;6128882;23;20402;-42
2021/07/06 14:14:14;;;;;;;7.10;6.30;;;30.40;58.40;;;;;;6128764;23;20870;-42
2021/07/06 14:16:41;;;;;;;2.40;1.80;;;30.50;58.20;;;;;;6129474;23;20406;-45
2021/07/06 14:19:09;;;;;;;1.90;1.50;;;30.60;58.50;;;;;;6129463;23;20540;-51
2021/07/06 14:21:37;;;;;;;1.50;1.23;;;30.70;57.90;;;;;;6129090;23;20438;-43
2021/07/06 14:24:04;;;;;;;7.20;2.40;;;30.80;57.70;;;;;;6129009;23;20419;-45
2021/07/06 14:26:31;;;;;;;1.50;1.40;;;30.70;57.50;;;;;;6129339;23;20421;-52
2021/07/06 14:28:59;;;;;;;1.27;1.17;;;30.60;58.00;;;;;;6128975;23;20414;-45
2021/07/06 14:31:26;;;;;;;1.50;1.40;;;30.60;57.70;;;;;;6130027;23;20692;-49
2021/07/06 14:33:53;;;;;;;2.77;1.67;;;30.80;58.10;;;;;;6129623;23;20406;-47
2021/07/06 14:36:21;;;;;;;2.10;1.63;;;31.00;58.20;;;;;;6130007;23;20433;-44
2021/07/06 14:38:50;;;;;;;1.67;1.40;;;31.10;58.10;;;;;;6129870;23;20727;-45
2021/07/06 14:41:17;;;;;;;2.60;1.97;;;31.20;57.80;;;;;;6129198;23;20442;-50
2021/07/06 14:43:44;;;;;;;2.93;2.63;;;31.30;57.80;;;;;;6129418;23;20419;-43
2021/07/06 14:46:12;;;;;;;3.50;3.20;;;31.30;57.50;;;;;;6129186;23;20410;-50
2021/07/06 14:48:39;;;;;;;6.53;5.93;;;31.20;57.40;;;;;;6128932;23;20513;-53
2021/07/06 14:51:06;;;;;;;3.77;2.20;;;31.10;57.10;;;;;;6129427;23;20886;-47
2021/07/06 14:53:33;;;;;;;5.17;2.43;;;31.00;57.50;;;;;;6129728;23;20462;-48
2021/07/06 14:56:01;;;;;;;2.67;1.93;;;30.90;57.80;;;;;;6129438;23;20760;-44
2021/07/06 14:58:28;;;;;;;2.37;2.13;;;30.80;58.20;;;;;;6129226;23;20407;-45
2021/07/06 15:00:55;;;;;;;2.13;1.80;;;30.60;57.90;;;;;;6129041;23;20443;-42
2021/07/06 15:03:22;;;;;;;3.40;2.00;;;30.50;58.30;;;;;;6129171;23;20493;-49
2021/07/06 15:05:49;;;;;;;2.10;1.90;;;30.40;58.50;;;;;;6128871;23;20750;-45
2021/07/06 15:08:16;;;;;;;2.87;1.67;;;30.30;58.90;;;;;;6128466;23;20426;-46
2021/07/06 15:10:42;;;;;;;1.73;1.50;;;30.10;58.90;;;;;;6128765;23;20466;-46
2021/07/06 15:13:10;;;;;;;2.60;1.90;;;30.00;59.40;;;;;;6128989;23;20417;-45
2021/07/06 15:15:38;;;;;;;1.40;1.30;;;30.00;59.70;;;;;;6129026;23;20421;-46
2021/07/06 15:18:05;;;;;;;1.60;1.50;;;29.90;59.80;;;;;;6128743;23;20874;-44
2021/07/06 15:20:33;;;;;;;1.73;1.53;;;29.80;60.50;;;;;;6128122;23;20504;-43
2021/07/06 15:23:01;;;;;;;3.23;1.90;;;29.70;60.30;;;;;;6128442;23;20406;-43
2021/07/06 15:25:28;;;;;;;5.47;2.53;;;29.60;60.90;;;;;;6128713;23;20707;-46
2021/07/06 15:27:55;;;;;;;5.00;3.07;;;29.60;61.10;;;;;;6128647;23;20761;-46
2021/07/06 15:30:23;;;;;;;2.80;2.10;;;29.50;61.00;;;;;;6128660;23;20738;-45
2021/07/06 15:32:50;;;;;;;3.50;2.70;;;29.40;61.60;;;;;;6128556;23;20470;-50
2021/07/06 15:35:19;;;;;;;1.87;1.67;;;29.40;62.00;;;;;;6128597;23;20419;-47
2021/07/06 15:37:50;;;;;;;4.83;2.50;;;29.30;62.10;;;;;;6128439;23;20506;-45
2021/07/06 15:40:18;;;;;;;5.33;2.97;;;29.20;62.80;;;;;;6128486;23;20409;-42
2021/07/06 15:42:45;;;;;;;9.60;1.70;;;29.10;63.00;;;;;;6128615;23;20414;-43
2021/07/06 15:45:12;;;;;;;1.80;1.70;;;29.00;64.20;;;;;;6128259;23;20411;-44
2021/07/06 15:47:40;;;;;;;4.87;3.57;;;28.90;66.70;;;;;;6128405;23;20438;-42
2021/07/06 15:50:08;;;;;;;3.00;1.70;;;28.80;67.60;;;;;;6128892;23;20414;-46
2021/07/06 15:52:35;;;;;;;2.10;1.87;;;28.60;69.40;;;;;;6128530;23;20410;-45
2021/07/06 15:55:03;;;;;;;5.37;1.70;;;28.40;73.10;;;;;;6129081;23;20411;-42